Time;durP1;ratioP1;P1;durP2;ratioP2;P2;SDS_P1;SDS_P2;PMS_P1;PMS_P2;Temp;Humidity;BMP_temperature;BMP_pressure;BME280_temperature;BME280_humidity;BME280_pressure;Samples;Min_cycle;Max_cycle;Signal;HPM_P1;HPM_P2
2023/01/09 00:02:23;;;;;;;2.10;1.90;;;10.80;99.90;;;;;;5055051;28;20216;-64
2023/01/09 00:04:50;;;;;;;1.83;1.63;;;10.80;99.90;;;;;;5055071;28;20255;-64
2023/01/09 00:07:16;;;;;;;1.90;1.63;;;10.80;99.90;;;;;;5054821;28;20201;-65
2023/01/09 00:09:43;;;;;;;2.00;1.70;;;10.80;99.90;;;;;;5054689;28;20232;-64
2023/01/09 00:12:10;;;;;;;2.00;1.73;;;10.90;99.90;;;;;;5054572;28;20216;-64
2023/01/09 00:14:36;;;;;;;1.87;1.67;;;10.90;99.90;;;;;;5054624;28;20221;-65
2023/01/09 00:17:04;;;;;;;2.07;1.70;;;10.90;99.90;;;;;;5054602;28;20248;-65
2023/01/09 00:19:31;;;;;;;1.40;1.30;;;11.00;99.90;;;;;;5054510;28;20217;-65
2023/01/09 00:21:58;;;;;;;1.67;1.57;;;11.00;99.90;;;;;;5054762;28;20210;-64
2023/01/09 00:24:24;;;;;;;2.07;1.87;;;11.00;99.90;;;;;;5054671;28;20734;-64
2023/01/09 00:26:51;;;;;;;1.83;1.60;;;11.00;99.90;;;;;;5054450;28;20767;-63
2023/01/09 00:29:18;;;;;;;1.90;1.70;;;11.00;99.90;;;;;;5054370;28;20634;-63
2023/01/09 00:31:44;;;;;;;4.20;1.83;;;11.10;99.90;;;;;;5054460;28;20209;-63
2023/01/09 00:34:12;;;;;;;1.33;1.23;;;11.10;99.90;;;;;;5054448;28;20224;-63
2023/01/09 00:36:39;;;;;;;1.83;1.73;;;11.10;99.90;;;;;;5054462;28;20225;-63
2023/01/09 00:39:06;;;;;;;1.40;1.30;;;11.20;99.90;;;;;;5053570;28;20259;-62
2023/01/09 00:41:37;;;;;;;1.47;1.37;;;11.10;99.90;;;;;;5054375;28;20214;-63
2023/01/09 00:44:08;;;;;;;1.67;1.50;;;11.10;99.90;;;;;;5054442;28;20673;-63
2023/01/09 00:46:39;;;;;;;1.70;1.50;;;11.20;99.90;;;;;;5054185;28;20236;-62
2023/01/09 00:49:07;;;;;;;2.20;2.00;;;11.30;99.90;;;;;;5053864;28;20205;-62
2023/01/09 00:51:36;;;;;;;1.57;1.47;;;11.30;99.90;;;;;;5054105;28;20216;-63
2023/01/09 00:54:04;;;;;;;2.07;1.37;;;11.30;99.90;;;;;;5054310;28;20216;-63
2023/01/09 00:56:31;;;;;;;2.07;1.47;;;11.40;99.90;;;;;;5054159;28;20226;-63
2023/01/09 00:58:58;;;;;;;1.70;1.40;;;11.40;99.90;;;;;;5057671;28;20644;-61
2023/01/09 01:01:24;;;;;;;1.80;1.47;;;11.30;99.90;;;;;;5055117;28;20688;-63
2023/01/09 01:03:51;;;;;;;1.60;1.43;;;11.30;99.90;;;;;;5055337;28;20220;-63
2023/01/09 01:09:04;;;;;;;3.13;1.47;;;11.20;99.90;;;;;;5054506;28;20221;-64
2023/01/09 01:11:32;;;;;;;1.50;1.37;;;11.20;99.90;;;;;;5053792;28;20205;-63
2023/01/09 01:13:59;;;;;;;1.30;1.10;;;11.20;99.90;;;;;;5053753;28;20224;-64
2023/01/09 01:16:26;;;;;;;1.50;1.40;;;11.10;99.90;;;;;;5053921;28;20679;-63
2023/01/09 01:18:53;;;;;;;1.20;1.10;;;11.10;99.90;;;;;;5054303;28;20230;-64
2023/01/09 01:21:19;;;;;;;1.30;1.20;;;11.10;99.90;;;;;;5054716;28;20205;-64
2023/01/09 01:23:46;;;;;;;2.00;1.20;;;11.10;99.90;;;;;;5054120;28;20213;-63
2023/01/09 01:26:16;;;;;;;1.10;1.00;;;11.10;99.90;;;;;;5053710;28;20225;-65
2023/01/09 01:28:43;;;;;;;1.70;1.00;;;11.10;99.90;;;;;;5053699;28;20201;-64
2023/01/09 01:31:16;;;;;;;1.27;1.17;;;11.10;99.90;;;;;;5053411;28;20201;-64
2023/01/09 01:33:43;;;;;;;1.30;1.20;;;11.10;99.90;;;;;;5053565;28;20206;-64
2023/01/09 01:36:10;;;;;;;1.30;1.20;;;11.10;99.90;;;;;;5053498;28;20232;-64
2023/01/09 01:38:37;;;;;;;1.23;1.13;;;11.20;99.90;;;;;;5053012;28;20802;-64
2023/01/09 01:41:05;;;;;;;1.43;1.10;;;11.10;99.90;;;;;;5053787;28;20214;-64
2023/01/09 01:43:53;;;;;;;1.20;1.10;;;11.10;99.90;;;;;;5054319;28;20256;-64
2023/01/09 01:46:20;;;;;;;1.40;1.10;;;11.10;99.90;;;;;;5060799;22;20238;-60
2023/01/09 01:48:48;;;;;;;1.50;0.90;;;11.20;99.90;;;;;;5035342;28;20195;-58
2023/01/09 01:51:18;;;;;;;1.63;1.20;;;11.20;99.90;;;;;;5036212;28;20269;-58
2023/01/09 01:53:48;;;;;;;0.80;0.80;;;11.10;99.90;;;;;;5036385;28;20217;-59
2023/01/09 01:56:19;;;;;;;1.20;1.10;;;11.20;99.90;;;;;;5035692;28;20241;-58
2023/01/09 01:58:49;;;;;;;0.80;0.80;;;11.20;99.90;;;;;;5035891;28;20237;-58
2023/01/09 02:01:18;;;;;;;1.63;0.90;;;11.20;99.90;;;;;;5035853;28;20210;-58
2023/01/09 02:03:45;;;;;;;1.90;1.10;;;11.20;99.90;;;;;;5035325;28;20206;-58
2023/01/09 02:06:13;;;;;;;1.00;0.90;;;11.20;99.90;;;;;;5037411;28;20225;-58
2023/01/09 02:08:40;;;;;;;0.90;0.83;;;11.10;99.90;;;;;;5035333;28;20206;-58
2023/01/09 02:11:07;;;;;;;1.13;1.03;;;11.10;99.90;;;;;;5035477;28;20214;-58
2023/01/09 02:13:37;;;;;;;0.93;0.90;;;11.10;99.90;;;;;;5037020;28;20249;-58
2023/01/09 02:16:22;;;;;;;0.90;0.90;;;11.10;99.90;;;;;;5036378;28;20236;-57
2023/01/09 02:18:51;;;;;;;0.67;0.63;;;11.20;99.90;;;;;;5035537;28;20226;-58
2023/01/09 02:21:26;;;;;;;0.97;0.67;;;11.20;99.90;;;;;;5034888;28;20222;-59
2023/01/09 02:24:20;;;;;;;1.03;0.70;;;11.20;99.90;;;;;;5037165;28;20673;-58
2023/01/09 02:27:32;;;;;;;0.80;0.50;;;11.20;99.90;;;;;;5035088;28;20313;-58
2023/01/09 02:30:26;;;;;;;0.77;0.40;;;11.30;99.90;;;;;;5036016;28;20230;-59
2023/01/09 02:33:18;;;;;;;0.40;0.40;;;11.20;99.90;;;;;;5035598;28;20210;-58
2023/01/09 02:36:00;;;;;;;0.50;0.50;;;11.20;99.90;;;;;;5036410;28;20222;-59
2023/01/09 02:38:35;;;;;;;0.63;0.63;;;11.20;99.90;;;;;;5037209;28;20236;-58
2023/01/09 02:41:06;;;;;;;0.40;0.40;;;11.30;99.90;;;;;;5036861;28;20265;-58
2023/01/09 02:43:33;;;;;;;0.60;0.60;;;11.30;99.90;;;;;;5036359;28;20214;-58
2023/01/09 02:46:01;;;;;;;1.73;0.50;;;11.30;99.90;;;;;;5036084;28;20744;-59
2023/01/09 02:48:29;;;;;;;0.67;0.50;;;11.10;99.90;;;;;;5034582;28;20670;-58
2023/01/09 02:51:06;;;;;;;1.00;0.50;;;11.00;99.90;;;;;;5036656;28;20206;-59
2023/01/09 02:54:09;;;;;;;1.67;0.50;;;11.00;99.90;;;;;;5034736;28;20206;-58
2023/01/09 02:56:49;;;;;;;0.50;0.50;;;10.90;99.90;;;;;;5036112;28;20226;-58
2023/01/09 02:59:25;;;;;;;0.40;0.40;;;10.90;99.90;;;;;;5035960;28;20230;-59
2023/01/09 03:02:13;;;;;;;0.50;0.40;;;10.90;99.90;;;;;;5035519;28;20585;-58
2023/01/09 03:04:52;;;;;;;0.80;0.40;;;10.90;99.90;;;;;;5036303;28;20644;-59
2023/01/09 03:07:23;;;;;;;0.70;0.23;;;11.00;99.90;;;;;;5035838;28;20321;-60
2023/01/09 03:09:57;;;;;;;0.40;0.30;;;10.90;99.90;;;;;;5036623;28;20214;-59
2023/01/09 03:12:28;;;;;;;0.20;0.20;;;10.90;99.90;;;;;;5036701;28;20206;-59
2023/01/09 03:14:58;;;;;;;0.93;0.30;;;11.00;99.90;;;;;;5036840;28;20277;-59
2023/01/09 03:17:32;;;;;;;0.47;0.40;;;11.00;99.90;;;;;;5034146;28;20225;-57
2023/01/09 03:20:01;;;;;;;0.40;0.30;;;10.90;99.90;;;;;;5034524;28;20206;-59
2023/01/09 03:22:27;;;;;;;0.40;0.40;;;10.90;99.90;;;;;;5036326;28;20586;-59
2023/01/09 03:24:54;;;;;;;0.30;0.30;;;10.90;99.90;;;;;;5035608;28;20252;-59
2023/01/09 03:27:21;;;;;;;0.23;0.23;;;10.90;99.90;;;;;;5036033;28;20284;-60
2023/01/09 03:29:48;;;;;;;0.20;0.20;;;10.90;99.90;;;;;;5035527;28;20206;-59
2023/01/09 03:32:15;;;;;;;0.80;0.23;;;11.00;99.90;;;;;;5034333;28;20201;-59
2023/01/09 03:34:43;;;;;;;0.43;0.20;;;11.00;99.90;;;;;;5034713;28;20213;-59
2023/01/09 03:37:10;;;;;;;0.53;0.30;;;11.00;99.90;;;;;;5034212;28;20601;-59
2023/01/09 03:39:37;;;;;;;0.80;0.40;;;11.00;99.90;;;;;;5033206;28;20232;-59
2023/01/09 03:42:04;;;;;;;0.10;0.10;;;11.00;99.90;;;;;;5034137;28;20206;-60
2023/01/09 03:44:31;;;;;;;2.20;0.50;;;11.00;99.90;;;;;;5034753;28;20210;-59
2023/01/09 03:46:58;;;;;;;0.30;0.30;;;11.10;99.90;;;;;;5033864;28;20265;-59
2023/01/09 03:49:25;;;;;;;1.43;0.30;;;11.10;99.90;;;;;;5035701;28;20233;-59
2023/01/09 03:51:53;;;;;;;0.27;0.23;;;11.10;99.90;;;;;;5033972;28;20218;-59
2023/01/09 03:54:20;;;;;;;0.50;0.30;;;11.10;99.90;;;;;;5034322;28;20214;-60
2023/01/09 03:56:47;;;;;;;0.40;0.20;;;11.10;99.90;;;;;;5033728;28;20231;-59
2023/01/09 03:59:13;;;;;;;0.67;0.40;;;11.10;99.90;;;;;;5033485;28;20222;-59
2023/01/09 04:01:40;;;;;;;0.30;0.20;;;11.00;99.90;;;;;;5034947;28;20741;-59
2023/01/09 04:04:07;;;;;;;0.43;0.10;;;11.00;99.90;;;;;;5034803;28;20214;-60
2023/01/09 04:06:34;;;;;;;0.83;0.53;;;11.00;99.90;;;;;;5034156;28;20222;-59
2023/01/09 04:09:02;;;;;;;1.10;0.40;;;11.00;99.90;;;;;;5035982;28;20680;-59
2023/01/09 04:11:29;;;;;;;5.67;3.93;;;10.90;99.90;;;;;;5035903;28;20631;-59
2023/01/09 04:13:56;;;;;;;6.03;5.20;;;10.80;99.90;;;;;;5035727;28;20209;-60
2023/01/09 04:16:23;;;;;;;0.37;0.20;;;10.70;99.90;;;;;;5038171;28;20230;-58
2023/01/09 04:18:49;;;;;;;1.80;0.17;;;10.70;99.90;;;;;;5039808;28;20674;-60
2023/01/09 04:21:16;;;;;;;0.30;0.30;;;10.60;99.90;;;;;;5040940;28;20210;-59
2023/01/09 04:23:44;;;;;;;0.27;0.10;;;10.60;99.90;;;;;;5039518;28;20210;-59
2023/01/09 04:26:12;;;;;;;0.53;0.10;;;10.60;99.90;;;;;;5039388;28;20447;-60
2023/01/09 04:28:39;;;;;;;0.20;0.20;;;10.50;99.90;;;;;;5039567;28;20648;-58
2023/01/09 04:31:06;;;;;;;0.10;0.00;;;10.40;99.90;;;;;;5038955;28;20245;-60
2023/01/09 04:33:33;;;;;;;0.20;0.10;;;10.20;99.90;;;;;;5038593;28;20209;-58
2023/01/09 04:36:00;;;;;;;1.33;0.20;;;10.00;99.90;;;;;;5038606;28;20777;-59
2023/01/09 04:38:27;;;;;;;0.20;0.20;;;9.90;99.90;;;;;;5038099;28;20325;-58
2023/01/09 04:40:54;;;;;;;0.83;0.40;;;9.90;99.90;;;;;;5038383;28;20213;-58
2023/01/09 04:43:22;;;;;;;0.20;0.10;;;9.90;99.90;;;;;;5038429;28;20583;-59
2023/01/09 04:45:49;;;;;;;0.80;0.27;;;9.90;99.90;;;;;;5037645;28;20611;-60
2023/01/09 04:48:16;;;;;;;0.53;0.40;;;9.80;99.90;;;;;;5037703;28;20603;-59
2023/01/09 04:50:42;;;;;;;0.70;0.70;;;9.80;99.90;;;;;;5037344;28;20220;-59
2023/01/09 04:53:09;;;;;;;0.80;0.47;;;9.80;99.90;;;;;;5037154;28;20256;-59
2023/01/09 04:55:36;;;;;;;1.30;0.80;;;9.80;99.90;;;;;;5036455;28;20248;-59
2023/01/09 04:58:03;;;;;;;1.60;0.57;;;9.80;99.90;;;;;;5036859;28;20206;-60
2023/01/09 05:00:31;;;;;;;2.33;1.50;;;9.80;99.90;;;;;;5036873;28;20206;-58
2023/01/09 05:02:58;;;;;;;0.57;0.20;;;9.80;99.90;;;;;;5037228;28;20194;-58
2023/01/09 05:05:25;;;;;;;0.30;0.20;;;9.80;99.90;;;;;;5037044;28;20297;-59
2023/01/09 05:07:51;;;;;;;0.43;0.33;;;9.80;99.90;;;;;;5037467;28;20582;-59
2023/01/09 05:10:18;;;;;;;0.93;0.40;;;9.80;99.90;;;;;;5036461;28;20206;-59
2023/01/09 05:12:45;;;;;;;0.27;0.20;;;9.80;99.90;;;;;;5037076;28;20682;-59
2023/01/09 05:15:12;;;;;;;1.50;0.73;;;9.70;99.90;;;;;;5036770;28;20205;-59
2023/01/09 05:17:40;;;;;;;0.50;0.40;;;9.70;99.90;;;;;;5037852;28;20202;-59
2023/01/09 05:20:08;;;;;;;0.60;0.37;;;9.70;99.90;;;;;;5039886;28;20255;-59
2023/01/09 05:22:35;;;;;;;0.63;0.30;;;9.70;99.90;;;;;;5038917;28;20206;-60
2023/01/09 05:25:02;;;;;;;0.70;0.40;;;9.70;99.90;;;;;;5037986;28;20206;-59
2023/01/09 05:27:29;;;;;;;0.60;0.37;;;9.70;99.90;;;;;;5039304;28;20222;-59
2023/01/09 05:29:56;;;;;;;0.80;0.30;;;9.70;99.90;;;;;;5038077;28;20206;-59
2023/01/09 05:32:22;;;;;;;0.93;0.50;;;9.70;99.90;;;;;;5039893;28;20662;-59
2023/01/09 05:34:51;;;;;;;1.83;0.80;;;9.70;99.90;;;;;;5038467;28;20214;-60
2023/01/09 05:37:18;;;;;;;1.10;0.50;;;9.80;99.90;;;;;;5036477;28;20227;-59
2023/01/09 05:39:44;;;;;;;1.00;0.40;;;9.70;99.90;;;;;;5035772;28;20230;-59
2023/01/09 05:42:11;;;;;;;1.17;0.47;;;9.70;99.90;;;;;;5036492;28;20203;-62
2023/01/09 05:44:38;;;;;;;1.07;0.40;;;9.60;99.90;;;;;;5035577;28;20202;-60
2023/01/09 05:47:05;;;;;;;1.20;0.33;;;9.60;99.90;;;;;;5035821;28;20233;-60
2023/01/09 05:49:32;;;;;;;0.63;0.40;;;9.60;99.90;;;;;;5037360;28;20224;-60
2023/01/09 05:52:00;;;;;;;2.53;0.60;;;9.60;99.90;;;;;;5035397;28;20560;-60
2023/01/09 05:54:26;;;;;;;2.27;0.70;;;9.50;99.90;;;;;;5037749;28;20203;-60
2023/01/09 05:56:53;;;;;;;0.63;0.40;;;9.40;99.90;;;;;;5036166;28;20226;-58
2023/01/09 05:59:20;;;;;;;2.40;0.40;;;9.40;99.90;;;;;;5035782;28;20222;-59
2023/01/09 06:01:46;;;;;;;1.30;0.50;;;9.30;99.90;;;;;;5036897;28;20574;-59
2023/01/09 06:04:13;;;;;;;0.93;0.37;;;9.20;99.90;;;;;;5037574;28;20214;-59
2023/01/09 06:06:40;;;;;;;1.63;0.70;;;9.20;99.90;;;;;;5036573;28;20253;-60
2023/01/09 06:09:08;;;;;;;2.67;0.43;;;9.00;99.90;;;;;;5035334;28;20207;-59
2023/01/09 06:11:37;;;;;;;2.07;1.10;;;9.00;99.90;;;;;;5036942;28;20218;-59
2023/01/09 06:14:03;;;;;;;0.90;0.40;;;8.80;99.90;;;;;;5034803;28;20828;-58
2023/01/09 06:16:30;;;;;;;9.17;3.87;;;8.70;99.90;;;;;;5036584;28;20226;-59
2023/01/09 06:18:57;;;;;;;1.03;0.50;;;8.70;99.90;;;;;;5037469;28;20225;-60
2023/01/09 06:21:24;;;;;;;0.87;0.43;;;8.70;99.90;;;;;;5036697;28;20206;-60
2023/01/09 06:23:51;;;;;;;0.80;0.50;;;8.50;99.90;;;;;;5036419;28;20210;-59
2023/01/09 06:26:19;;;;;;;1.03;0.57;;;8.50;99.90;;;;;;5034463;28;20265;-60
2023/01/09 06:28:45;;;;;;;1.00;0.60;;;8.40;99.90;;;;;;5034341;28;20198;-60
2023/01/09 06:31:12;;;;;;;2.20;0.47;;;8.30;99.90;;;;;;5034391;28;20594;-58
2023/01/09 06:33:39;;;;;;;3.53;0.90;;;8.30;99.90;;;;;;5035547;28;20280;-59
2023/01/09 06:36:06;;;;;;;2.43;0.50;;;8.20;99.90;;;;;;5035866;28;20233;-58
2023/01/09 06:38:33;;;;;;;2.20;0.80;;;8.10;99.90;;;;;;5035388;28;20210;-59
2023/01/09 06:41:00;;;;;;;5.37;1.63;;;8.10;99.90;;;;;;5035652;28;20210;-58
2023/01/09 06:43:28;;;;;;;5.20;2.83;;;8.10;99.90;;;;;;5034854;28;20214;-59
2023/01/09 06:45:55;;;;;;;5.80;3.00;;;8.00;99.90;;;;;;5034500;28;20237;-59
2023/01/09 06:48:23;;;;;;;4.63;2.37;;;8.10;99.90;;;;;;5035478;28;20222;-59
2023/01/09 06:50:50;;;;;;;5.07;1.60;;;8.30;99.90;;;;;;5034719;28;20210;-60
2023/01/09 06:53:17;;;;;;;1.43;1.00;;;8.40;99.90;;;;;;5034907;28;20203;-59
2023/01/09 06:55:44;;;;;;;1.70;0.70;;;8.50;99.90;;;;;;5034841;28;20710;-59
2023/01/09 06:58:12;;;;;;;3.97;1.03;;;8.60;99.90;;;;;;5034881;28;20627;-59
2023/01/09 07:00:40;;;;;;;1.40;0.50;;;8.60;99.90;;;;;;5034772;28;20634;-59
2023/01/09 07:03:08;;;;;;;3.30;0.97;;;8.60;99.90;;;;;;5034870;28;20217;-59
2023/01/09 07:05:39;;;;;;;2.23;0.50;;;8.70;99.90;;;;;;5035000;28;20701;-58
2023/01/09 07:08:06;;;;;;;1.20;0.60;;;8.70;99.90;;;;;;5035282;28;20211;-60
2023/01/09 07:10:33;;;;;;;1.40;0.70;;;8.70;99.90;;;;;;5034653;28;20213;-59
2023/01/09 07:13:00;;;;;;;2.50;0.87;;;8.50;99.90;;;;;;5034744;28;20212;-59
2023/01/09 07:15:26;;;;;;;1.93;0.90;;;8.50;99.90;;;;;;5035043;28;20206;-60
2023/01/09 07:17:55;;;;;;;1.27;0.70;;;8.60;99.90;;;;;;5034752;28;20202;-59
2023/01/09 07:20:21;;;;;;;5.00;1.10;;;8.80;99.90;;;;;;5036602;28;20229;-59
2023/01/09 07:22:48;;;;;;;1.77;0.97;;;8.80;99.90;;;;;;5035141;28;20209;-60
2023/01/09 07:25:15;;;;;;;1.33;0.60;;;8.90;99.90;;;;;;5034646;28;20210;-59
2023/01/09 07:27:42;;;;;;;2.23;0.60;;;8.90;99.90;;;;;;5034392;28;20717;-59
2023/01/09 07:30:10;;;;;;;1.63;0.80;;;8.90;99.90;;;;;;5034659;28;20198;-59
2023/01/09 07:32:37;;;;;;;2.97;0.90;;;9.00;99.90;;;;;;5034727;28;20210;-59
2023/01/09 07:35:06;;;;;;;2.93;0.60;;;9.00;99.90;;;;;;5034031;28;20210;-59
2023/01/09 07:37:33;;;;;;;2.90;0.70;;;9.10;99.90;;;;;;5034164;28;20229;-59
2023/01/09 07:40:00;;;;;;;2.33;0.80;;;9.10;99.90;;;;;;5034047;28;20229;-59
2023/01/09 07:42:27;;;;;;;1.10;0.70;;;9.10;99.90;;;;;;5034761;28;20202;-59
2023/01/09 07:44:53;;;;;;;0.93;0.70;;;9.20;99.90;;;;;;5034241;28;20241;-59
2023/01/09 07:47:20;;;;;;;2.67;0.73;;;9.20;99.90;;;;;;5034132;28;20234;-58
2023/01/09 07:49:47;;;;;;;0.87;0.50;;;9.30;99.90;;;;;;5036036;28;20206;-57
2023/01/09 07:52:15;;;;;;;2.33;1.00;;;9.40;99.90;;;;;;5037816;28;20281;-57
2023/01/09 07:54:42;;;;;;;1.63;0.60;;;9.40;99.90;;;;;;5037636;28;20210;-57
2023/01/09 07:57:08;;;;;;;1.47;0.70;;;9.30;99.90;;;;;;5037063;28;20729;-57
2023/01/09 07:59:35;;;;;;;3.07;0.90;;;9.30;99.90;;;;;;5036838;28;20229;-57
2023/01/09 08:02:04;;;;;;;3.30;1.07;;;9.30;99.90;;;;;;5036861;28;20216;-56
2023/01/09 08:04:31;;;;;;;2.73;0.80;;;9.30;99.90;;;;;;5037148;28;20300;-57
2023/01/09 08:06:57;;;;;;;0.87;0.40;;;9.30;99.90;;;;;;5036620;28;20226;-57
2023/01/09 08:09:25;;;;;;;2.70;1.00;;;9.20;99.90;;;;;;5036654;28;20599;-59
2023/01/09 08:11:52;;;;;;;1.47;0.60;;;9.10;99.90;;;;;;5037095;28;20218;-57
2023/01/09 08:14:19;;;;;;;1.43;0.40;;;9.10;99.90;;;;;;5036782;28;20221;-57
2023/01/09 08:16:45;;;;;;;2.03;0.80;;;9.00;99.90;;;;;;5036703;28;20226;-56
2023/01/09 08:19:12;;;;;;;4.57;0.97;;;9.00;99.90;;;;;;5035874;28;20288;-57
2023/01/09 08:21:39;;;;;;;1.20;0.50;;;8.90;99.90;;;;;;5036813;28;20217;-57
2023/01/09 08:24:06;;;;;;;2.00;0.80;;;8.90;99.90;;;;;;5036954;28;20217;-57
2023/01/09 08:26:34;;;;;;;1.30;0.50;;;8.80;99.90;;;;;;5036913;28;20617;-57
2023/01/09 08:29:01;;;;;;;2.87;0.80;;;9.00;99.90;;;;;;5036888;28;20206;-59
2023/01/09 08:31:28;;;;;;;2.70;1.80;;;9.20;99.90;;;;;;5036487;28;20670;-57
2023/01/09 08:33:55;;;;;;;3.07;0.83;;;9.50;99.90;;;;;;5036826;28;20214;-62
2023/01/09 08:36:22;;;;;;;3.53;0.83;;;9.70;99.90;;;;;;5034671;28;20234;-55
2023/01/09 08:38:48;;;;;;;3.40;0.73;;;10.00;99.90;;;;;;5034562;28;20206;-54
2023/01/09 08:49:29;;;;;;;2.73;0.60;;;10.00;99.90;;;;;;5034310;28;20416;-55
2023/01/09 08:51:56;;;;;;;1.37;0.70;;;9.80;99.90;;;;;;5034522;28;20206;-55
2023/01/09 08:54:23;;;;;;;2.90;1.10;;;9.70;99.90;;;;;;5034429;28;20210;-55
2023/01/09 08:56:50;;;;;;;2.13;1.00;;;9.60;99.90;;;;;;5034422;28;20233;-55
2023/01/09 08:59:18;;;;;;;4.17;1.27;;;9.40;99.90;;;;;;5034186;28;20712;-55
2023/01/09 09:01:45;;;;;;;5.53;0.90;;;9.30;99.90;;;;;;5033718;28;20225;-55
2023/01/09 09:04:11;;;;;;;3.60;0.80;;;9.30;99.90;;;;;;5034205;28;20203;-54
2023/01/09 09:06:38;;;;;;;1.93;0.60;;;9.10;99.90;;;;;;5033957;28;20234;-55
2023/01/09 09:09:05;;;;;;;2.13;0.70;;;9.10;99.90;;;;;;5033878;28;20247;-54
2023/01/09 09:11:32;;;;;;;6.60;4.13;;;9.20;99.90;;;;;;5034159;28;20206;-54
2023/01/09 09:13:59;;;;;;;5.20;1.20;;;9.10;99.90;;;;;;5033678;28;20244;-53
2023/01/09 09:16:28;;;;;;;5.23;1.23;;;9.10;99.90;;;;;;5034155;28;20227;-53
2023/01/09 09:18:54;;;;;;;3.00;1.10;;;9.20;99.90;;;;;;5033788;28;20210;-53
2023/01/09 09:21:21;;;;;;;2.00;0.77;;;9.20;99.90;;;;;;5033740;28;20657;-52
2023/01/09 09:23:48;;;;;;;3.17;0.77;;;9.20;99.90;;;;;;5033734;28;20211;-52
2023/01/09 09:26:14;;;;;;;3.53;0.83;;;9.30;99.90;;;;;;5034157;28;20230;-53
2023/01/09 09:28:41;;;;;;;1.73;0.70;;;9.30;99.90;;;;;;5034083;28;20210;-52
2023/01/09 09:31:08;;;;;;;1.70;0.77;;;9.30;99.90;;;;;;5033380;28;20198;-52
2023/01/09 09:33:36;;;;;;;1.73;0.60;;;9.30;99.90;;;;;;5033667;28;20222;-53
2023/01/09 09:36:03;;;;;;;2.00;0.90;;;9.40;99.90;;;;;;5033251;28;20226;-53
2023/01/09 09:38:29;;;;;;;3.57;0.97;;;9.40;99.90;;;;;;5033638;28;20202;-52
2023/01/09 09:44:41;;;;;;;2.27;0.70;;;9.40;99.90;;;;;;5033079;28;20689;-52
2023/01/09 09:47:06;;;;;;;2.60;0.80;;;9.50;99.90;;;;;;5032799;28;20657;-53
2023/01/09 09:49:44;;;;;;;1.17;0.63;;;9.40;99.90;;;;;;5033278;28;20211;-53
2023/01/09 09:52:20;;;;;;;3.00;0.60;;;9.40;99.90;;;;;;5033390;28;20209;-52
2023/01/09 09:54:49;;;;;;;4.57;0.90;;;9.50;99.90;;;;;;5033342;28;20214;-54
2023/01/09 09:57:22;;;;;;;1.77;0.80;;;9.60;99.90;;;;;;5032967;28;20230;-52
2023/01/09 09:59:51;;;;;;;2.13;1.00;;;9.70;99.90;;;;;;5032577;28;20276;-53
2023/01/09 10:02:26;;;;;;;2.53;0.63;;;10.00;99.90;;;;;;5032939;28;20206;-53
2023/01/09 10:05:00;;;;;;;1.43;0.60;;;10.20;99.90;;;;;;5033191;28;20210;-60
2023/01/09 10:07:32;;;;;;;3.47;0.70;;;10.50;99.90;;;;;;5032903;28;20234;-53
2023/01/09 10:10:03;;;;;;;5.20;1.63;;;10.80;99.90;;;;;;5032779;28;20201;-56
2023/01/09 10:12:32;;;;;;;6.70;3.50;;;10.90;99.90;;;;;;5032124;28;20304;-54
2023/01/09 10:15:01;;;;;;;6.67;1.13;;;11.00;99.90;;;;;;5033238;28;20658;-53
2023/01/09 10:17:44;;;;;;;2.53;0.70;;;11.20;99.90;;;;;;5032772;28;20233;-55
2023/01/09 10:20:48;;;;;;;5.50;1.00;;;11.20;99.90;;;;;;5032440;28;20510;-54
2023/01/09 10:23:33;;;;;;;6.53;1.93;;;11.30;99.90;;;;;;5032931;28;20673;-55
2023/01/09 10:26:05;;;;;;;2.60;0.80;;;11.40;99.90;;;;;;5033020;28;20234;-55
2023/01/09 10:28:50;;;;;;;2.43;0.90;;;11.60;99.90;;;;;;5033109;28;20206;-56
2023/01/09 10:31:27;;;;;;;2.70;0.83;;;11.60;99.90;;;;;;5033092;28;20211;-54
2023/01/09 10:34:05;;;;;;;2.67;0.70;;;11.70;99.90;;;;;;5033337;28;20292;-54
2023/01/09 10:36:49;;;;;;;4.37;1.17;;;11.80;99.90;;;;;;5032574;28;20226;-54
2023/01/09 10:39:21;;;;;;;4.57;1.07;;;11.80;99.90;;;;;;5032339;28;20223;-54
2023/01/09 10:41:55;;;;;;;4.33;1.20;;;11.90;99.90;;;;;;5032286;28;20226;-54
2023/01/09 10:44:27;;;;;;;3.50;1.10;;;11.90;99.90;;;;;;5032335;28;20212;-54
2023/01/09 10:46:55;;;;;;;6.93;1.13;;;12.10;99.90;;;;;;5032542;28;20230;-54
2023/01/09 10:49:23;;;;;;;3.37;0.90;;;12.10;99.90;;;;;;5032496;28;20209;-54
2023/01/09 10:51:56;;;;;;;3.13;1.00;;;12.10;99.90;;;;;;5033161;28;20210;-54
2023/01/09 10:54:24;;;;;;;3.17;0.83;;;12.00;99.90;;;;;;5032949;28;20210;-54
2023/01/09 10:56:55;;;;;;;2.53;0.90;;;12.00;99.90;;;;;;5033180;28;20222;-54
2023/01/09 10:59:22;;;;;;;4.00;0.97;;;12.20;99.90;;;;;;5032131;28;20214;-54
2023/01/09 11:01:49;;;;;;;2.53;0.70;;;12.30;99.90;;;;;;5031976;28;20226;-55
2023/01/09 11:04:23;;;;;;;2.83;0.90;;;12.30;99.90;;;;;;5032397;28;20713;-54
2023/01/09 11:06:56;;;;;;;5.77;1.23;;;12.40;99.90;;;;;;5032067;28;20221;-53
2023/01/09 11:09:23;;;;;;;2.43;0.80;;;12.50;99.90;;;;;;5031853;28;20577;-53
2023/01/09 11:11:50;;;;;;;3.87;2.10;;;12.50;99.90;;;;;;5032129;28;20206;-53
2023/01/09 11:14:26;;;;;;;3.07;0.90;;;12.40;99.90;;;;;;5032216;28;20202;-54
2023/01/09 11:16:55;;;;;;;2.07;0.87;;;12.30;99.90;;;;;;5031829;28;20232;-56
2023/01/09 11:19:22;;;;;;;2.67;1.00;;;12.20;99.90;;;;;;5032123;28;20237;-54
2023/01/09 11:21:50;;;;;;;2.78;1.00;;;12.10;99.90;;;;;;5029143;28;20510;-56
2023/01/09 11:24:28;;;;;;;4.03;1.50;;;12.10;99.90;;;;;;5032973;28;20198;-57
2023/01/09 11:27:26;;;;;;;3.13;1.00;;;12.10;99.90;;;;;;5030428;28;20229;-59
2023/01/09 11:30:14;;;;;;;3.13;1.20;;;12.10;99.90;;;;;;5035386;28;20649;-58
2023/01/09 11:32:41;;;;;;;3.60;1.00;;;12.10;99.90;;;;;;5034867;28;20344;-57
2023/01/09 11:35:18;;;;;;;3.30;1.30;;;12.20;99.90;;;;;;5035935;28;20236;-59
2023/01/09 11:37:45;;;;;;;2.77;0.80;;;12.10;99.90;;;;;;5035478;28;20210;-57
2023/01/09 11:40:18;;;;;;;5.77;2.73;;;12.10;99.90;;;;;;5034733;28;20233;-56
2023/01/09 11:43:05;;;;;;;2.97;0.80;;;12.00;99.90;;;;;;5034712;28;20628;-57
2023/01/09 11:45:34;;;;;;;2.13;1.10;;;12.00;99.90;;;;;;5034878;28;20203;-57
2023/01/09 11:48:03;;;;;;;3.87;1.07;;;12.10;99.90;;;;;;5034534;28;20202;-58
2023/01/09 11:50:31;;;;;;;2.77;0.87;;;12.10;99.90;;;;;;5034246;28;20208;-57
2023/01/09 11:53:15;;;;;;;3.33;1.03;;;12.20;99.90;;;;;;5034642;28;20217;-55
2023/01/09 11:55:42;;;;;;;12.03;8.57;;;12.20;99.90;;;;;;5034796;28;20236;-58
2023/01/09 11:58:13;;;;;;;1.87;1.03;;;12.30;99.90;;;;;;5034628;28;20214;-57
2023/01/09 12:00:47;;;;;;;5.93;1.37;;;12.20;99.90;;;;;;5034073;28;20254;-55
2023/01/09 12:03:23;;;;;;;3.97;1.20;;;12.20;99.90;;;;;;5034480;28;20232;-55
2023/01/09 12:05:58;;;;;;;4.53;2.20;;;12.20;99.90;;;;;;5034109;28;20238;-55
2023/01/09 12:08:36;;;;;;;4.43;1.20;;;12.30;99.90;;;;;;5034447;28;20251;-56
2023/01/09 12:11:18;;;;;;;3.27;1.40;;;12.40;99.90;;;;;;5033730;28;20678;-55
2023/01/09 12:14:11;;;;;;;4.40;1.40;;;12.40;99.90;;;;;;5034406;28;20232;-56
2023/01/09 12:16:45;;;;;;;4.07;1.70;;;12.40;99.90;;;;;;5026639;28;20234;-56
2023/01/09 12:19:36;;;;;;;4.43;1.30;;;12.30;99.90;;;;;;5033355;28;20226;-56
2023/01/09 12:22:13;;;;;;;5.43;1.13;;;12.40;99.90;;;;;;5034792;28;20592;-56
2023/01/09 12:24:54;;;;;;;6.10;1.23;;;12.40;99.90;;;;;;5034230;28;20630;-56
2023/01/09 12:27:32;;;;;;;3.37;1.30;;;12.40;99.90;;;;;;5034083;28;20857;-57
2023/01/09 12:30:25;;;;;;;2.23;1.20;;;12.50;99.90;;;;;;5033745;28;20198;-55
2023/01/09 12:33:08;;;;;;;2.57;1.13;;;12.50;99.90;;;;;;5033844;28;20585;-56
2023/01/09 12:35:40;;;;;;;4.33;1.60;;;12.60;99.90;;;;;;5032695;28;20233;-55
2023/01/09 12:38:31;;;;;;;3.97;1.10;;;12.60;99.90;;;;;;5033916;28;20607;-60
2023/01/09 12:41:13;;;;;;;2.27;1.30;;;12.50;99.90;;;;;;5022261;28;20235;-61
2023/01/09 12:43:51;;;;;;;3.87;1.30;;;12.50;99.90;;;;;;5011392;28;20564;-62
2023/01/09 12:46:20;;;;;;;3.73;1.37;;;12.50;99.90;;;;;;5008400;28;20225;-60
2023/01/09 12:49:11;;;;;;;6.10;1.43;;;12.30;99.90;;;;;;5014331;28;20207;-58
2023/01/09 12:51:41;;;;;;;2.07;0.97;;;12.20;99.90;;;;;;5013697;28;20207;-59
2023/01/09 12:54:16;;;;;;;3.77;1.30;;;12.10;99.90;;;;;;5013868;28;20214;-58
2023/01/09 12:56:47;;;;;;;3.87;1.00;;;12.00;99.90;;;;;;5013351;28;20739;-58
2023/01/09 12:59:29;;;;;;;3.13;1.00;;;11.90;99.90;;;;;;5013791;28;20206;-58
2023/01/09 13:02:02;;;;;;;5.40;0.90;;;11.80;99.90;;;;;;5014061;28;20318;-55
2023/01/09 13:04:34;;;;;;;2.73;1.13;;;11.60;99.90;;;;;;5014466;28;20214;-55
2023/01/09 13:07:05;;;;;;;2.50;1.00;;;11.40;99.90;;;;;;5014493;28;20237;-55
2023/01/09 13:09:38;;;;;;;5.47;0.90;;;11.40;99.90;;;;;;5014802;28;20217;-57
2023/01/09 13:12:11;;;;;;;3.93;1.13;;;11.50;99.90;;;;;;5015100;28;20670;-55
2023/01/09 13:14:49;;;;;;;3.77;1.23;;;11.60;99.90;;;;;;5014698;28;20253;-56
2023/01/09 13:17:23;;;;;;;3.97;1.10;;;11.90;99.90;;;;;;5014498;28;20226;-55
2023/01/09 13:19:52;;;;;;;3.57;1.33;;;12.10;99.90;;;;;;5014096;28;20206;-55
2023/01/09 13:22:19;;;;;;;3.60;1.00;;;12.20;99.90;;;;;;5014605;28;20277;-57